Terminal Aerodrome Forecast
Issued by NWS Grand Forks, ND

Home | Current Version | Previous Version | Graphics & Text | Print | Product List | Glossary On
Versions: 1 2 3 4 5 6 7 8 9 10 11 12 13 14 15 16 17 18
000
FTUS43 KFGF 151300 AAA
TAFFAR
TAF AMD
KFAR 151339Z 1514/1612 35021KT 6SM BR OVC008
     FM151500 35019G25KT P6SM OVC008
     FM152000 35024G30KT P6SM BKN015
     FM160100 34018KT P6SM BKN025=

USA.gov is the U.S. government's official web portal to all federal, state and local government web resources and services.